createdAt,value
2022-08-03T00:01:49.413Z,61.94
2022-08-03T00:04:16.044Z,61.63
2022-08-03T00:06:42.945Z,61.50
2022-08-03T00:09:09.683Z,61.50
2022-08-03T00:11:36.689Z,61.10
2022-08-03T00:14:04.651Z,61.13
2022-08-03T00:16:31.278Z,61.17
2022-08-03T00:18:57.992Z,61.28
2022-08-03T00:21:27.871Z,61.47
2022-08-03T00:23:54.502Z,61.96
2022-08-03T00:26:21.429Z,61.84
2022-08-03T00:28:48.629Z,62.22
2022-08-03T00:31:15.410Z,62.50
2022-08-03T00:33:58.221Z,63.39
2022-08-03T00:36:27.873Z,63.35
2022-08-03T00:38:55.058Z,63.29
2022-08-03T00:41:21.958Z,63.42
2022-08-03T00:43:48.639Z,63.06
2022-08-03T00:46:20.613Z,63.14
2022-08-03T00:48:50.158Z,63.40
2022-08-03T00:51:16.849Z,63.49
2022-08-03T00:53:43.621Z,63.52
2022-08-03T00:56:16.854Z,63.26
2022-08-03T00:58:47.106Z,63.33
2022-08-03T01:01:14.989Z,63.41
2022-08-03T01:03:41.652Z,63.75
2022-08-03T01:06:20.012Z,63.88
2022-08-03T01:09:08.459Z,64.08
2022-08-03T01:12:01.003Z,63.55
2022-08-03T01:14:44.306Z,63.36
2022-08-03T01:17:16.847Z,64.05
2022-08-03T01:19:52.851Z,64.09
2022-08-03T01:22:42.404Z,64.28
2022-08-03T01:25:36.437Z,63.91
2022-08-03T01:28:40.837Z,63.34
2022-08-03T01:31:10.374Z,64.05
2022-08-03T01:33:43.624Z,64.20
2022-08-03T01:36:14.416Z,64.72
2022-08-03T01:38:53.908Z,64.36
2022-08-03T01:41:25.073Z,64.54
2022-08-03T01:44:27.213Z,64.58
2022-08-03T01:46:47.479Z,64.13
2022-08-03T01:49:15.245Z,64.16
2022-08-03T01:51:56.646Z,64.15
2022-08-03T01:54:33.205Z,64.21
2022-08-03T01:56:59.846Z,63.94
2022-08-03T01:59:29.511Z,64.48
2022-08-03T02:02:28.812Z,64.76
2022-08-03T02:04:46.958Z,65.21
2022-08-03T02:07:15.295Z,65.25
2022-08-03T02:09:45.094Z,65.16
2022-08-03T02:12:14.085Z,65.25
2022-08-03T02:14:43.451Z,65.26
2022-08-03T02:17:12.370Z,65.36
2022-08-03T02:19:40.640Z,65.24
2022-08-03T02:22:11.980Z,66.03
2022-08-03T02:24:38.955Z,66.08
2022-08-03T02:27:18.823Z,66.05
2022-08-03T02:29:50.006Z,66.19
2022-08-03T02:32:20.437Z,66.36
2022-08-03T02:34:50.736Z,66.75
2022-08-03T02:37:19.831Z,66.52
2022-08-03T02:39:47.787Z,66.70
2022-08-03T02:42:17.236Z,66.46
2022-08-03T02:44:48.578Z,65.74
2022-08-03T02:47:17.135Z,66.30
2022-08-03T02:49:50.405Z,66.80
2022-08-03T02:52:19.840Z,66.78
2022-08-03T02:54:48.704Z,66.60
2022-08-03T02:57:16.455Z,66.96
2022-08-03T02:59:44.545Z,67.63
2022-08-03T03:02:12.429Z,68.50
2022-08-03T03:04:56.211Z,67.87
2022-08-03T03:07:28.859Z,68.10
2022-08-03T03:09:58.432Z,68.58
2022-08-03T03:12:26.440Z,68.52
2022-08-03T03:14:53.181Z,68.16
2022-08-03T03:17:21.504Z,68.26
2022-08-03T03:19:51.063Z,68.30
2022-08-03T03:22:18.935Z,68.51
2022-08-03T03:24:47.866Z,68.30
2022-08-03T03:27:16.771Z,67.76
2022-08-03T03:29:44.466Z,67.54
2022-08-03T03:32:11.143Z,67.48
2022-08-03T03:34:38.142Z,67.70
2022-08-03T03:37:05.270Z,68.13
2022-08-03T03:39:32.055Z,68.28
2022-08-03T03:42:00.777Z,68.28
2022-08-03T03:44:31.604Z,68.47
2022-08-03T03:46:58.631Z,68.24
2022-08-03T03:49:26.701Z,68.30
2022-08-03T03:51:54.884Z,68.84
2022-08-03T03:54:21.780Z,68.73
2022-08-03T03:56:52.312Z,68.81
2022-08-03T03:59:18.993Z,69.62
2022-08-03T04:01:45.851Z,69.57
2022-08-03T04:04:31.110Z,69.41
2022-08-03T04:07:16.517Z,70.29
2022-08-03T04:10:14.457Z,69.90
2022-08-03T04:12:50.312Z,69.30
2022-08-03T04:15:19.369Z,68.47
2022-08-03T04:17:47.783Z,69.96
2022-08-03T04:20:15.770Z,71.28
2022-08-03T04:22:42.702Z,70.88
2022-08-03T04:25:14.187Z,71.32
2022-08-03T04:27:42.117Z,71.85
2022-08-03T04:30:09.609Z,71.20
2022-08-03T04:32:41.885Z,71.24
2022-08-03T04:35:12.215Z,71.53
2022-08-03T04:37:43.191Z,72.20
2022-08-03T04:40:14.761Z,71.99
2022-08-03T04:42:43.338Z,71.96
2022-08-03T04:45:13.117Z,71.68
2022-08-03T04:47:40.285Z,71.65
2022-08-03T04:50:12.473Z,71.20
2022-08-03T04:52:40.652Z,71.50
2022-08-03T04:55:07.710Z,72.43
2022-08-03T04:57:34.339Z,72.27
2022-08-03T05:00:03.573Z,72.00
2022-08-03T05:02:31.923Z,72.29
2022-08-03T05:04:59.201Z,73.17
2022-08-03T05:07:25.831Z,73.27
2022-08-03T05:10:01.580Z,73.10
2022-08-03T05:12:32.926Z,73.38
2022-08-03T05:15:00.323Z,73.37
2022-08-03T05:17:27.323Z,73.72
2022-08-03T05:19:54.877Z,73.66
2022-08-03T05:22:22.748Z,73.14
2022-08-03T05:24:49.694Z,72.73
2022-08-03T05:27:22.282Z,72.78
2022-08-03T05:29:50.711Z,73.10
2022-08-03T05:32:18.671Z,73.14
2022-08-03T05:34:45.675Z,73.25
2022-08-03T05:37:12.424Z,73.10
2022-08-03T05:39:39.060Z,72.58
2022-08-03T05:42:05.825Z,72.23
2022-08-03T05:44:32.459Z,71.89
2022-08-03T05:46:59.531Z,71.63
2022-08-03T05:49:26.245Z,70.85
2022-08-03T05:52:00.021Z,70.13
2022-08-03T05:54:56.031Z,68.98
2022-08-03T05:57:22.332Z,67.98
2022-08-03T05:59:57.754Z,67.01
2022-08-03T06:02:28.626Z,66.00
2022-08-03T06:04:55.247Z,66.04
2022-08-03T06:07:22.073Z,65.59
2022-08-03T06:10:37.209Z,64.73
2022-08-03T06:12:36.235Z,63.66
2022-08-03T06:15:04.909Z,64.12
2022-08-03T06:17:37.364Z,63.87
2022-08-03T06:20:05.864Z,63.35
2022-08-03T06:22:32.770Z,63.73
2022-08-03T06:25:03.683Z,63.39
2022-08-03T06:27:36.595Z,62.62
2022-08-03T06:30:05.731Z,62.45
2022-08-03T06:32:32.400Z,63.01
2022-08-03T06:34:59.405Z,63.66
2022-08-03T06:37:27.131Z,62.94
2022-08-03T06:39:54.219Z,62.67
2022-08-03T06:42:20.906Z,62.46
2022-08-03T06:44:49.556Z,62.36
2022-08-03T06:47:16.237Z,62.34
2022-08-03T06:49:42.956Z,61.94
2022-08-03T06:52:09.580Z,62.15
2022-08-03T06:54:36.425Z,61.87
2022-08-03T06:57:03.700Z,61.34
2022-08-03T07:00:07.338Z,60.72
2022-08-03T07:02:19.549Z,60.48
2022-08-03T07:04:47.949Z,59.38
2022-08-03T07:07:14.563Z,59.29
2022-08-03T07:09:41.730Z,59.66
2022-08-03T07:12:08.668Z,58.18
2022-08-03T07:14:35.220Z,57.65
2022-08-03T07:17:01.847Z,57.53
2022-08-03T07:19:37.975Z,57.03
2022-08-03T07:22:04.733Z,56.80
2022-08-03T07:24:31.337Z,56.77
2022-08-03T07:26:57.991Z,57.01
2022-08-03T07:29:25.037Z,57.02
2022-08-03T07:31:51.732Z,56.74
2022-08-03T07:34:18.625Z,56.50
2022-08-03T07:36:45.334Z,56.29
2022-08-03T07:39:16.656Z,56.91
2022-08-03T07:41:44.699Z,57.13
2022-08-03T07:44:11.311Z,56.86
2022-08-03T07:46:38.000Z,56.65
2022-08-03T07:49:05.262Z,55.89
2022-08-03T07:51:31.929Z,56.31
2022-08-03T07:53:59.094Z,55.47
2022-08-03T07:56:25.841Z,56.28
2022-08-03T07:58:53.235Z,55.31
2022-08-03T08:01:20.071Z,53.85
2022-08-03T08:03:53.269Z,53.64
2022-08-03T08:06:21.193Z,53.32
2022-08-03T08:08:48.585Z,53.37
2022-08-03T08:11:15.334Z,54.10
2022-08-03T08:13:42.083Z,53.24
2022-08-03T08:16:08.773Z,52.75
2022-08-03T08:18:35.372Z,52.78
2022-08-03T08:21:03.398Z,51.82
2022-08-03T08:23:42.700Z,52.27
2022-08-03T08:26:11.251Z,52.33
2022-08-03T08:28:37.884Z,52.28
2022-08-03T08:31:04.556Z,51.93
2022-08-03T08:34:02.636Z,51.24
2022-08-03T08:36:18.148Z,50.95
2022-08-03T08:38:45.302Z,50.38
2022-08-03T08:41:13.844Z,50.65
2022-08-03T08:43:41.891Z,49.35
2022-08-03T08:46:12.546Z,49.58
2022-08-03T08:48:46.389Z,49.06
2022-08-03T08:51:13.854Z,48.85
2022-08-03T08:53:46.690Z,48.14
2022-08-03T08:56:17.674Z,47.05
2022-08-03T08:58:51.263Z,48.20
2022-08-03T09:01:19.969Z,47.85
2022-08-03T09:03:47.267Z,48.25
2022-08-03T09:06:15.027Z,47.82
2022-08-03T09:08:41.943Z,46.61
2022-08-03T09:11:08.816Z,45.85
2022-08-03T09:13:38.910Z,46.21
2022-08-03T09:16:15.615Z,45.76
2022-08-03T09:18:44.574Z,44.75
2022-08-03T09:21:33.962Z,44.22
2022-08-03T09:24:06.212Z,43.51
2022-08-03T09:26:36.104Z,43.70
2022-08-03T09:29:15.212Z,43.48
2022-08-03T09:31:46.838Z,43.96
2022-08-03T09:34:17.866Z,43.33
2022-08-03T09:36:46.192Z,42.90
2022-08-03T09:39:15.699Z,42.39
2022-08-03T09:41:45.100Z,42.15
2022-08-03T09:44:24.079Z,42.35
2022-08-03T09:46:56.510Z,41.92
2022-08-03T09:49:24.251Z,41.92
2022-08-03T09:52:38.346Z,42.29
2022-08-03T09:54:38.936Z,41.52
2022-08-03T09:57:05.528Z,41.43
2022-08-03T09:59:33.601Z,41.74
2022-08-03T10:02:00.864Z,41.45
2022-08-03T10:04:27.921Z,41.57
2022-08-03T10:07:09.458Z,41.97
2022-08-03T10:09:37.506Z,41.43
2022-08-03T10:12:09.285Z,42.03
2022-08-03T10:14:38.890Z,40.68
2022-08-03T10:17:06.797Z,40.01
2022-08-03T10:19:33.888Z,40.34
2022-08-03T10:22:14.283Z,40.02
2022-08-03T10:24:49.856Z,40.50
2022-08-03T10:27:18.710Z,40.48
2022-08-03T10:29:48.952Z,39.40
2022-08-03T10:32:39.327Z,39.76
2022-08-03T10:35:19.942Z,39.14
2022-08-03T10:37:57.135Z,39.11
2022-08-03T10:40:46.828Z,39.16
2022-08-03T10:43:18.629Z,39.04
2022-08-03T10:45:46.603Z,38.94
2022-08-03T10:48:14.344Z,38.70
2022-08-03T10:50:43.384Z,38.56
2022-08-03T10:53:10.303Z,38.21
2022-08-03T10:55:58.994Z,38.52
2022-08-03T10:58:38.034Z,37.42
2022-08-03T11:01:59.902Z,37.65
2022-08-03T11:04:29.531Z,36.76
2022-08-03T11:07:15.582Z,36.89
2022-08-03T11:09:43.932Z,37.38
2022-08-03T11:12:29.904Z,37.34
2022-08-03T11:15:07.545Z,36.22
2022-08-03T11:17:46.270Z,35.94
2022-08-03T11:20:52.145Z,35.86
2022-08-03T11:24:02.869Z,35.86
2022-08-03T11:26:26.025Z,35.51
2022-08-03T11:28:52.647Z,36.25
2022-08-03T11:31:39.582Z,36.85
2022-08-03T11:34:10.988Z,36.75
2022-08-03T11:37:15.526Z,36.31
2022-08-03T11:39:45.404Z,36.78
2022-08-03T11:42:24.332Z,35.95
2022-08-03T11:44:56.140Z,35.86
2022-08-03T11:47:24.340Z,36.15
2022-08-03T11:49:54.002Z,35.73
2022-08-03T11:52:27.555Z,35.69
2022-08-03T11:54:57.013Z,35.60
2022-08-03T11:59:01.719Z,35.22
2022-08-03T12:00:32.574Z,35.57
2022-08-03T12:03:12.015Z,36.07
2022-08-03T12:05:51.394Z,35.64
2022-08-03T12:08:28.142Z,34.68
2022-08-03T12:10:57.025Z,34.99
2022-08-03T12:14:45.122Z,34.79
2022-08-03T12:16:18.989Z,34.47
2022-08-03T12:18:46.387Z,35.21
2022-08-03T12:21:13.133Z,35.21
2022-08-03T12:23:39.843Z,35.08
2022-08-03T12:26:09.745Z,34.94
2022-08-03T12:28:38.399Z,35.08
2022-08-03T12:31:11.802Z,34.58
2022-08-03T12:34:04.967Z,33.99
2022-08-03T12:36:34.366Z,34.43
2022-08-03T12:39:04.042Z,33.40
2022-08-03T12:41:39.233Z,34.08
2022-08-03T12:44:06.341Z,33.55
2022-08-03T12:46:36.889Z,34.32
2022-08-03T12:49:18.758Z,33.48
2022-08-03T12:51:45.512Z,33.29
2022-08-03T12:54:24.404Z,33.81
2022-08-03T12:57:05.596Z,34.14
2022-08-03T12:59:40.441Z,34.04
2022-08-03T13:02:28.696Z,33.60
2022-08-03T13:04:55.944Z,33.38
2022-08-03T13:07:23.365Z,32.87
2022-08-03T13:09:56.286Z,33.53
2022-08-03T13:12:25.181Z,33.98
2022-08-03T13:14:54.861Z,33.67
2022-08-03T13:17:21.813Z,33.24
2022-08-03T13:19:49.760Z,33.76
2022-08-03T13:22:21.325Z,33.18
2022-08-03T13:24:50.387Z,33.15
2022-08-03T13:28:01.233Z,32.24
2022-08-03T13:30:04.944Z,33.47
2022-08-03T13:32:31.551Z,33.26
2022-08-03T13:34:58.229Z,33.49
2022-08-03T13:37:25.637Z,33.22
2022-08-03T13:39:58.727Z,32.66
2022-08-03T13:42:31.878Z,32.88
2022-08-03T13:44:59.757Z,32.29
2022-08-03T13:47:27.441Z,32.65
2022-08-03T13:50:01.485Z,32.61
2022-08-03T13:52:34.107Z,32.73
2022-08-03T13:55:01.973Z,32.12
2022-08-03T13:58:02.613Z,32.35
2022-08-03T14:00:27.024Z,32.13
2022-08-03T14:03:16.083Z,30.83
2022-08-03T14:05:43.997Z,32.13
2022-08-03T14:08:11.719Z,31.55
2022-08-03T14:10:41.980Z,32.13
2022-08-03T14:13:17.388Z,31.13
2022-08-03T14:15:50.958Z,31.53
2022-08-03T14:18:28.248Z,32.20
2022-08-03T14:21:00.795Z,31.69
2022-08-03T14:23:32.387Z,31.70
2022-08-03T14:25:59.656Z,31.64
2022-08-03T14:28:26.270Z,31.52
2022-08-03T14:30:54.543Z,30.91
2022-08-03T14:33:21.539Z,31.32
2022-08-03T14:35:48.909Z,30.53
2022-08-03T14:38:15.946Z,29.42
2022-08-03T14:40:43.374Z,29.76
2022-08-03T14:43:10.007Z,29.52
2022-08-03T14:45:36.700Z,29.66
2022-08-03T14:50:29.293Z,29.20
2022-08-03T14:50:52.849Z,28.48
2022-08-03T14:53:20.064Z,29.88
2022-08-03T14:55:50.354Z,28.61
2022-08-03T14:58:20.079Z,29.14
2022-08-03T15:00:48.079Z,28.87
2022-08-03T15:03:15.890Z,28.10
2022-08-03T15:05:43.828Z,28.67
2022-08-03T15:08:10.418Z,28.32
2022-08-03T15:10:44.180Z,28.57
2022-08-03T15:13:15.141Z,28.89
2022-08-03T15:15:42.009Z,29.80
2022-08-03T15:18:08.959Z,30.02
2022-08-03T15:20:44.299Z,30.14
2022-08-03T15:23:12.907Z,29.57
2022-08-03T15:26:32.314Z,30.13
2022-08-03T15:28:26.018Z,28.89
2022-08-03T15:30:53.142Z,29.52
2022-08-03T15:33:20.106Z,29.72
2022-08-03T15:35:47.519Z,28.83
2022-08-03T15:38:14.257Z,29.52
2022-08-03T15:40:40.994Z,29.38
2022-08-03T15:43:08.089Z,29.05
2022-08-03T15:45:36.076Z,29.13
2022-08-03T15:48:05.022Z,28.92
2022-08-03T15:50:31.948Z,29.32
2022-08-03T15:52:58.578Z,29.30
2022-08-03T15:55:25.348Z,29.13
2022-08-03T15:59:03.267Z,29.34
2022-08-03T16:00:39.532Z,29.75
2022-08-03T16:03:06.327Z,30.36
2022-08-03T16:05:33.014Z,31.19
2022-08-03T16:08:04.314Z,31.27
2022-08-03T16:10:32.622Z,30.97
2022-08-03T16:13:00.204Z,30.89
2022-08-03T16:15:27.350Z,30.67
2022-08-03T16:17:54.035Z,31.08
2022-08-03T16:20:29.269Z,31.31
2022-08-03T16:23:10.574Z,30.78
2022-08-03T16:25:44.309Z,30.62
2022-08-03T16:28:17.306Z,30.58
2022-08-03T16:30:45.796Z,31.24
2022-08-03T16:33:16.722Z,31.29
2022-08-03T16:35:46.127Z,31.53
2022-08-03T16:38:18.590Z,31.83
2022-08-03T16:40:47.066Z,31.78
2022-08-03T16:43:18.267Z,31.42
2022-08-03T16:45:46.978Z,31.65
2022-08-03T16:48:15.254Z,31.72
2022-08-03T16:50:42.111Z,32.30
2022-08-03T16:53:15.584Z,32.74
2022-08-03T16:55:52.333Z,32.93
2022-08-03T16:58:41.322Z,33.31
2022-08-03T17:01:22.055Z,33.51
2022-08-03T17:04:02.283Z,32.74
2022-08-03T17:06:35.354Z,33.19
2022-08-03T17:09:13.351Z,33.21
2022-08-03T17:11:46.925Z,33.03
2022-08-03T17:14:21.803Z,33.04
2022-08-03T17:16:52.517Z,33.14
2022-08-03T17:19:24.959Z,32.26
2022-08-03T17:21:59.970Z,32.74
2022-08-03T17:24:41.330Z,33.15
2022-08-03T17:28:41.795Z,32.11
2022-08-03T17:30:17.461Z,32.19
2022-08-03T17:32:57.910Z,32.48
2022-08-03T17:35:34.667Z,32.43
2022-08-03T17:38:06.633Z,32.40
2022-08-03T17:40:35.820Z,32.79
2022-08-03T17:43:44.509Z,32.97
2022-08-03T17:45:52.921Z,32.96
2022-08-03T17:48:25.104Z,33.19
2022-08-03T17:50:59.461Z,33.65
2022-08-03T17:53:34.094Z,33.84
2022-08-03T17:56:42.696Z,34.11
2022-08-03T17:59:15.734Z,33.59
2022-08-03T18:02:19.947Z,33.67
2022-08-03T18:05:16.588Z,32.98
2022-08-03T18:08:01.545Z,33.39
2022-08-03T18:10:34.727Z,33.80
2022-08-03T18:13:14.842Z,33.63
2022-08-03T18:15:54.303Z,33.69
2022-08-03T18:18:32.722Z,33.85
2022-08-03T18:21:06.524Z,34.58
2022-08-03T18:23:37.732Z,34.54
2022-08-03T18:26:12.398Z,34.79
2022-08-03T18:28:39.235Z,34.29
2022-08-03T18:31:07.530Z,34.67
2022-08-03T18:34:17.078Z,34.85
2022-08-03T18:36:30.127Z,35.05
2022-08-03T18:39:02.393Z,35.27
2022-08-03T18:41:32.148Z,35.21
2022-08-03T18:44:09.067Z,34.86
2022-08-03T18:47:07.442Z,35.19
2022-08-03T18:49:52.079Z,35.43
2022-08-03T18:52:33.744Z,35.35
2022-08-03T18:55:33.462Z,35.68
2022-08-03T18:58:08.431Z,35.97
2022-08-03T19:00:54.718Z,36.09
2022-08-03T19:03:25.477Z,35.79
2022-08-03T19:06:20.314Z,36.42
2022-08-03T19:08:55.680Z,35.82
2022-08-03T19:11:27.795Z,36.20
2022-08-03T19:13:59.345Z,36.16
2022-08-03T19:16:35.699Z,36.20
2022-08-03T19:21:59.431Z,37.08
2022-08-03T19:24:26.856Z,37.12
2022-08-03T19:26:55.945Z,37.25
2022-08-03T19:29:25.055Z,37.20
2022-08-03T19:32:15.081Z,37.31
2022-08-03T19:34:45.988Z,37.75
2022-08-03T19:37:15.338Z,37.73
2022-08-03T19:39:43.595Z,38.06
2022-08-03T19:45:14.375Z,37.77
2022-08-03T19:48:10.128Z,37.92
2022-08-03T19:50:37.884Z,37.99
2022-08-03T19:53:12.894Z,38.68
2022-08-03T19:55:46.436Z,38.77
2022-08-03T19:58:17.744Z,38.18
2022-08-03T20:00:55.620Z,38.27
2022-08-03T20:03:24.855Z,38.36
2022-08-03T20:05:54.148Z,39.51
2022-08-03T20:08:22.187Z,39.74
2022-08-03T20:10:49.587Z,39.88
2022-08-03T20:16:05.943Z,39.65
2022-08-03T20:21:25.321Z,39.66
2022-08-03T20:24:02.007Z,39.76
2022-08-03T20:26:32.057Z,39.89
2022-08-03T20:29:10.000Z,39.50
2022-08-03T20:31:39.527Z,40.13
2022-08-03T20:34:07.052Z,40.03
2022-08-03T20:36:35.772Z,40.32
2022-08-03T20:39:07.674Z,40.81
2022-08-03T20:41:36.144Z,40.32
2022-08-03T20:44:04.403Z,40.94
2022-08-03T20:46:46.505Z,41.24
2022-08-03T20:49:23.422Z,41.00
2022-08-03T20:51:53.179Z,41.24
2022-08-03T20:54:29.460Z,41.35
2022-08-03T20:57:04.439Z,41.53
2022-08-03T20:59:50.368Z,41.74
2022-08-03T21:02:28.794Z,41.36
2022-08-03T21:04:59.407Z,41.44
2022-08-03T21:07:45.641Z,41.84
2022-08-03T21:10:21.869Z,42.06
2022-08-03T21:13:01.993Z,36.64
2022-08-03T21:13:02.803Z,37.87
2022-08-03T21:13:03.679Z,39.59
2022-08-03T21:13:03.878Z,40.04
2022-08-03T21:13:16.195Z,42.17
2022-08-03T21:19:37.290Z,42.86
2022-08-03T21:22:22.564Z,42.61
2022-08-03T21:24:55.776Z,42.67
2022-08-03T21:27:24.567Z,42.94
2022-08-03T21:29:53.308Z,42.94
2022-08-03T21:32:32.567Z,42.02
2022-08-03T21:35:01.318Z,41.97
2022-08-03T21:37:31.951Z,41.94
2022-08-03T21:39:58.601Z,42.36
2022-08-03T21:42:25.400Z,42.56
2022-08-03T21:44:52.997Z,42.07
2022-08-03T21:47:22.714Z,42.30
2022-08-03T21:50:08.846Z,42.13
2022-08-03T21:52:43.309Z,42.26
2022-08-03T21:55:18.490Z,42.28
2022-08-03T21:57:53.400Z,41.96
2022-08-03T22:00:23.064Z,42.01
2022-08-03T22:02:56.077Z,42.04
2022-08-03T22:05:42.946Z,42.08
2022-08-03T22:08:13.304Z,42.00
2022-08-03T22:10:43.489Z,42.29
2022-08-03T22:14:17.567Z,42.48
2022-08-03T22:16:45.024Z,42.27
2022-08-03T22:19:11.581Z,42.96
2022-08-03T22:21:39.780Z,42.84
2022-08-03T22:24:07.354Z,43.46
2022-08-03T22:26:35.970Z,43.70
2022-08-03T22:29:06.913Z,43.99
2022-08-03T22:31:58.776Z,44.24
2022-08-03T22:34:26.732Z,44.44
2022-08-03T22:36:57.247Z,44.65
2022-08-03T22:39:28.835Z,44.45
2022-08-03T22:41:58.898Z,44.85
2022-08-03T22:44:27.236Z,44.61
2022-08-03T22:46:55.040Z,44.74
2022-08-03T22:49:22.289Z,45.06
2022-08-03T22:51:51.643Z,45.04
2022-08-03T22:54:18.582Z,45.29
2022-08-03T22:56:46.770Z,45.19
2022-08-03T22:59:40.976Z,45.30
2022-08-03T23:02:19.957Z,44.95
2022-08-03T23:04:56.714Z,44.80
2022-08-03T23:07:34.939Z,44.84
2022-08-03T23:10:04.701Z,45.29
2022-08-03T23:12:37.215Z,45.27
2022-08-03T23:15:07.291Z,45.21
2022-08-03T23:17:58.296Z,45.32
2022-08-03T23:24:39.971Z,45.22
2022-08-03T23:27:08.854Z,45.64
2022-08-03T23:29:37.308Z,45.21
2022-08-03T23:32:05.645Z,45.62
2022-08-03T23:34:52.639Z,45.91
2022-08-03T23:37:20.389Z,45.87
2022-08-03T23:43:54.492Z,45.93
2022-08-03T23:46:25.884Z,46.39
2022-08-03T23:48:53.869Z,46.70
2022-08-03T23:51:35.549Z,46.76
2022-08-03T23:54:47.339Z,46.44
2022-08-03T23:57:38.886Z,46.27
